sensor_id;sensor_type;location;lat;lon;timestamp;temperature;humidity
19248;DHT22;9758;48.640;8.148;2022-08-19T00:01:19;23.10;50.30
19248;DHT22;9758;48.640;8.148;2022-08-19T00:03:46;23.10;50.30
19248;DHT22;9758;48.640;8.148;2022-08-19T00:06:14;23.10;50.30
19248;DHT22;9758;48.640;8.148;2022-08-19T00:08:42;23.10;50.30
19248;DHT22;9758;48.640;8.148;2022-08-19T00:11:10;23.10;50.30
19248;DHT22;9758;48.640;8.148;2022-08-19T00:13:37;23.00;50.30
19248;DHT22;9758;48.640;8.148;2022-08-19T00:16:05;23.10;50.30
19248;DHT22;9758;48.640;8.148;2022-08-19T00:18:32;23.10;50.40
19248;DHT22;9758;48.640;8.148;2022-08-19T00:20:59;23.10;50.40
19248;DHT22;9758;48.640;8.148;2022-08-19T00:23:26;23.00;50.30
19248;DHT22;9758;48.640;8.148;2022-08-19T00:25:55;23.10;50.40
19248;DHT22;9758;48.640;8.148;2022-08-19T00:28:21;23.10;50.40
19248;DHT22;9758;48.640;8.148;2022-08-19T00:30:48;23.00;50.40
19248;DHT22;9758;48.640;8.148;2022-08-19T00:33:17;23.00;50.40
19248;DHT22;9758;48.640;8.148;2022-08-19T00:35:43;23.00;50.40
19248;DHT22;9758;48.640;8.148;2022-08-19T00:38:10;23.10;50.50
19248;DHT22;9758;48.640;8.148;2022-08-19T00:40:37;23.00;50.50
19248;DHT22;9758;48.640;8.148;2022-08-19T00:43:09;23.00;50.40
19248;DHT22;9758;48.640;8.148;2022-08-19T00:45:36;23.00;50.50
19248;DHT22;9758;48.640;8.148;2022-08-19T00:48:03;23.00;50.50
19248;DHT22;9758;48.640;8.148;2022-08-19T00:50:31;23.10;50.50
19248;DHT22;9758;48.640;8.148;2022-08-19T00:52:58;23.00;50.50
19248;DHT22;9758;48.640;8.148;2022-08-19T00:55:26;23.00;50.50
19248;DHT22;9758;48.640;8.148;2022-08-19T00:58:00;23.00;50.60
19248;DHT22;9758;48.640;8.148;2022-08-19T01:00:30;23.00;50.60
19248;DHT22;9758;48.640;8.148;2022-08-19T01:02:57;23.00;50.60
19248;DHT22;9758;48.640;8.148;2022-08-19T01:05:28;23.00;50.60
19248;DHT22;9758;48.640;8.148;2022-08-19T01:07:57;23.00;50.60
19248;DHT22;9758;48.640;8.148;2022-08-19T01:10:27;23.10;50.70
19248;DHT22;9758;48.640;8.148;2022-08-19T01:12:57;23.10;50.70
19248;DHT22;9758;48.640;8.148;2022-08-19T01:15:27;23.10;50.70
19248;DHT22;9758;48.640;8.148;2022-08-19T01:17:57;23.10;50.70
19248;DHT22;9758;48.640;8.148;2022-08-19T01:20:24;23.10;50.70
19248;DHT22;9758;48.640;8.148;2022-08-19T01:22:55;23.10;50.80
19248;DHT22;9758;48.640;8.148;2022-08-19T01:25:26;23.10;50.70
19248;DHT22;9758;48.640;8.148;2022-08-19T01:27:54;23.10;50.70
19248;DHT22;9758;48.640;8.148;2022-08-19T01:30:24;23.10;50.70
19248;DHT22;9758;48.640;8.148;2022-08-19T01:32:52;23.10;50.70
19248;DHT22;9758;48.640;8.148;2022-08-19T01:35:20;23.10;50.80
19248;DHT22;9758;48.640;8.148;2022-08-19T01:37:51;23.00;50.70
19248;DHT22;9758;48.640;8.148;2022-08-19T01:40:21;23.00;50.70
19248;DHT22;9758;48.640;8.148;2022-08-19T01:42:48;23.00;50.80
19248;DHT22;9758;48.640;8.148;2022-08-19T01:45:16;23.00;50.80
19248;DHT22;9758;48.640;8.148;2022-08-19T01:47:43;23.00;50.80
19248;DHT22;9758;48.640;8.148;2022-08-19T01:50:11;23.00;50.80
19248;DHT22;9758;48.640;8.148;2022-08-19T01:52:39;23.00;50.90
19248;DHT22;9758;48.640;8.148;2022-08-19T01:55:09;23.00;50.90
19248;DHT22;9758;48.640;8.148;2022-08-19T01:57:37;22.90;50.90
19248;DHT22;9758;48.640;8.148;2022-08-19T02:00:08;22.90;50.90
19248;DHT22;9758;48.640;8.148;2022-08-19T02:02:35;22.90;51.00
19248;DHT22;9758;48.640;8.148;2022-08-19T02:05:03;22.90;50.90
19248;DHT22;9758;48.640;8.148;2022-08-19T02:07:30;22.90;51.00
19248;DHT22;9758;48.640;8.148;2022-08-19T02:09:58;22.90;51.00
19248;DHT22;9758;48.640;8.148;2022-08-19T02:12:46;22.80;51.00
19248;DHT22;9758;48.640;8.148;2022-08-19T02:15:13;22.90;51.30
19248;DHT22;9758;48.640;8.148;2022-08-19T02:17:40;22.90;51.10
19248;DHT22;9758;48.640;8.148;2022-08-19T02:20:08;22.90;51.20
19248;DHT22;9758;48.640;8.148;2022-08-19T02:22:35;22.80;51.10
19248;DHT22;9758;48.640;8.148;2022-08-19T02:25:02;22.90;51.20
19248;DHT22;9758;48.640;8.148;2022-08-19T02:27:29;22.90;51.20
19248;DHT22;9758;48.640;8.148;2022-08-19T02:29:57;22.80;51.20
19248;DHT22;9758;48.640;8.148;2022-08-19T02:32:24;22.90;51.30
19248;DHT22;9758;48.640;8.148;2022-08-19T02:34:51;22.90;51.30
19248;DHT22;9758;48.640;8.148;2022-08-19T02:37:18;22.90;51.30
19248;DHT22;9758;48.640;8.148;2022-08-19T02:39:59;22.90;51.40
19248;DHT22;9758;48.640;8.148;2022-08-19T02:42:25;22.90;51.40
19248;DHT22;9758;48.640;8.148;2022-08-19T02:44:52;22.90;51.40
19248;DHT22;9758;48.640;8.148;2022-08-19T02:47:23;22.90;51.40
19248;DHT22;9758;48.640;8.148;2022-08-19T02:49:49;22.90;51.40
19248;DHT22;9758;48.640;8.148;2022-08-19T02:52:16;22.90;51.40
19248;DHT22;9758;48.640;8.148;2022-08-19T02:54:43;22.90;51.50
19248;DHT22;9758;48.640;8.148;2022-08-19T02:57:10;22.80;51.50
19248;DHT22;9758;48.640;8.148;2022-08-19T02:59:37;22.80;51.50
19248;DHT22;9758;48.640;8.148;2022-08-19T03:02:05;22.80;51.60
19248;DHT22;9758;48.640;8.148;2022-08-19T03:04:33;22.80;51.60
19248;DHT22;9758;48.640;8.148;2022-08-19T03:07:00;22.80;51.70
19248;DHT22;9758;48.640;8.148;2022-08-19T03:09:26;22.80;51.70
19248;DHT22;9758;48.640;8.148;2022-08-19T03:11:53;22.80;51.80
19248;DHT22;9758;48.640;8.148;2022-08-19T03:14:20;22.80;51.80
19248;DHT22;9758;48.640;8.148;2022-08-19T03:16:48;22.80;51.80
19248;DHT22;9758;48.640;8.148;2022-08-19T03:19:17;22.80;51.80
19248;DHT22;9758;48.640;8.148;2022-08-19T03:21:45;22.80;51.80
19248;DHT22;9758;48.640;8.148;2022-08-19T03:24:14;22.80;51.80
19248;DHT22;9758;48.640;8.148;2022-08-19T03:26:43;22.70;51.80
19248;DHT22;9758;48.640;8.148;2022-08-19T03:29:10;22.70;51.90
19248;DHT22;9758;48.640;8.148;2022-08-19T03:31:38;22.70;52.00
19248;DHT22;9758;48.640;8.148;2022-08-19T03:34:05;22.70;52.00
19248;DHT22;9758;48.640;8.148;2022-08-19T03:36:32;22.60;52.00
19248;DHT22;9758;48.640;8.148;2022-08-19T03:39:01;22.60;52.00
19248;DHT22;9758;48.640;8.148;2022-08-19T03:41:29;22.60;52.10
19248;DHT22;9758;48.640;8.148;2022-08-19T03:43:56;22.60;52.10
19248;DHT22;9758;48.640;8.148;2022-08-19T03:46:25;22.60;52.10
19248;DHT22;9758;48.640;8.148;2022-08-19T03:48:53;22.60;52.10
19248;DHT22;9758;48.640;8.148;2022-08-19T03:51:24;22.60;52.10
19248;DHT22;9758;48.640;8.148;2022-08-19T03:53:51;22.70;52.20
19248;DHT22;9758;48.640;8.148;2022-08-19T03:56:20;22.60;52.20
19248;DHT22;9758;48.640;8.148;2022-08-19T03:58:47;22.60;52.20
19248;DHT22;9758;48.640;8.148;2022-08-19T04:01:17;22.60;52.20
19248;DHT22;9758;48.640;8.148;2022-08-19T04:03:45;22.60;52.30
19248;DHT22;9758;48.640;8.148;2022-08-19T04:06:14;22.60;52.30
19248;DHT22;9758;48.640;8.148;2022-08-19T04:08:43;22.60;52.30
19248;DHT22;9758;48.640;8.148;2022-08-19T04:11:12;22.60;52.30
19248;DHT22;9758;48.640;8.148;2022-08-19T04:13:41;22.60;52.30
19248;DHT22;9758;48.640;8.148;2022-08-19T04:16:09;22.60;52.30
19248;DHT22;9758;48.640;8.148;2022-08-19T04:18:36;22.60;52.30
19248;DHT22;9758;48.640;8.148;2022-08-19T04:21:04;22.60;52.30
19248;DHT22;9758;48.640;8.148;2022-08-19T04:23:31;22.70;52.40
19248;DHT22;9758;48.640;8.148;2022-08-19T04:25:58;22.70;52.40
19248;DHT22;9758;48.640;8.148;2022-08-19T04:28:25;22.70;52.40
19248;DHT22;9758;48.640;8.148;2022-08-19T04:30:54;22.70;52.40
19248;DHT22;9758;48.640;8.148;2022-08-19T04:33:24;22.70;52.40
19248;DHT22;9758;48.640;8.148;2022-08-19T04:35:52;22.70;52.50
19248;DHT22;9758;48.640;8.148;2022-08-19T04:38:21;22.70;52.50
19248;DHT22;9758;48.640;8.148;2022-08-19T04:40:51;22.70;52.40
19248;DHT22;9758;48.640;8.148;2022-08-19T04:43:37;22.70;52.50
19248;DHT22;9758;48.640;8.148;2022-08-19T04:46:07;22.70;52.50
19248;DHT22;9758;48.640;8.148;2022-08-19T04:48:34;22.70;52.50
19248;DHT22;9758;48.640;8.148;2022-08-19T04:51:00;22.70;52.60
19248;DHT22;9758;48.640;8.148;2022-08-19T04:53:29;22.60;52.50
19248;DHT22;9758;48.640;8.148;2022-08-19T04:55:58;22.60;52.60
19248;DHT22;9758;48.640;8.148;2022-08-19T04:58:26;22.70;52.70
19248;DHT22;9758;48.640;8.148;2022-08-19T05:00:53;22.70;52.70
19248;DHT22;9758;48.640;8.148;2022-08-19T05:03:22;22.70;52.60
19248;DHT22;9758;48.640;8.148;2022-08-19T05:05:48;22.70;52.70
19248;DHT22;9758;48.640;8.148;2022-08-19T05:08:17;22.70;52.60
19248;DHT22;9758;48.640;8.148;2022-08-19T05:10:46;22.70;52.60
19248;DHT22;9758;48.640;8.148;2022-08-19T05:13:14;22.80;52.70
19248;DHT22;9758;48.640;8.148;2022-08-19T05:15:41;22.80;52.70
19248;DHT22;9758;48.640;8.148;2022-08-19T05:18:08;22.80;52.70
19248;DHT22;9758;48.640;8.148;2022-08-19T05:20:54;22.90;52.70
19248;DHT22;9758;48.640;8.148;2022-08-19T05:23:39;22.90;52.70
19248;DHT22;9758;48.640;8.148;2022-08-19T05:26:06;22.90;52.60
19248;DHT22;9758;48.640;8.148;2022-08-19T05:28:34;22.90;52.60
19248;DHT22;9758;48.640;8.148;2022-08-19T05:31:01;22.90;52.60
19248;DHT22;9758;48.640;8.148;2022-08-19T05:33:28;22.80;52.60
19248;DHT22;9758;48.640;8.148;2022-08-19T05:35:56;22.80;52.60
19248;DHT22;9758;48.640;8.148;2022-08-19T05:38:24;22.80;52.70
19248;DHT22;9758;48.640;8.148;2022-08-19T05:40:52;22.70;52.70
19248;DHT22;9758;48.640;8.148;2022-08-19T05:43:19;22.80;52.80
19248;DHT22;9758;48.640;8.148;2022-08-19T05:45:46;22.80;52.80
19248;DHT22;9758;48.640;8.148;2022-08-19T05:48:13;22.80;52.80
19248;DHT22;9758;48.640;8.148;2022-08-19T05:50:41;22.80;52.80
19248;DHT22;9758;48.640;8.148;2022-08-19T05:53:09;22.80;52.80
19248;DHT22;9758;48.640;8.148;2022-08-19T05:55:36;22.80;52.90
19248;DHT22;9758;48.640;8.148;2022-08-19T05:58:04;22.80;52.80
19248;DHT22;9758;48.640;8.148;2022-08-19T06:00:33;22.80;52.80
19248;DHT22;9758;48.640;8.148;2022-08-19T06:02:59;22.80;52.90
19248;DHT22;9758;48.640;8.148;2022-08-19T06:05:28;22.80;52.90
19248;DHT22;9758;48.640;8.148;2022-08-19T06:07:56;22.80;52.90
19248;DHT22;9758;48.640;8.148;2022-08-19T06:10:25;22.80;53.00
19248;DHT22;9758;48.640;8.148;2022-08-19T06:12:52;22.70;52.80
19248;DHT22;9758;48.640;8.148;2022-08-19T06:15:19;22.70;53.10
19248;DHT22;9758;48.640;8.148;2022-08-19T06:17:51;22.70;53.20
19248;DHT22;9758;48.640;8.148;2022-08-19T06:20:18;22.80;53.20
19248;DHT22;9758;48.640;8.148;2022-08-19T06:22:47;22.80;53.10
19248;DHT22;9758;48.640;8.148;2022-08-19T06:25:21;22.80;53.10
19248;DHT22;9758;48.640;8.148;2022-08-19T06:27:49;22.80;53.10
19248;DHT22;9758;48.640;8.148;2022-08-19T06:30:16;22.80;53.10
19248;DHT22;9758;48.640;8.148;2022-08-19T06:32:42;22.90;53.10
19248;DHT22;9758;48.640;8.148;2022-08-19T06:35:09;22.90;53.10
19248;DHT22;9758;48.640;8.148;2022-08-19T06:37:36;22.90;53.00
19248;DHT22;9758;48.640;8.148;2022-08-19T06:40:04;22.90;53.00
19248;DHT22;9758;48.640;8.148;2022-08-19T06:42:33;22.80;53.00
19248;DHT22;9758;48.640;8.148;2022-08-19T06:45:02;22.80;53.10
19248;DHT22;9758;48.640;8.148;2022-08-19T06:47:29;22.90;53.10
19248;DHT22;9758;48.640;8.148;2022-08-19T06:49:57;22.90;53.10
19248;DHT22;9758;48.640;8.148;2022-08-19T06:52:28;22.90;53.20
19248;DHT22;9758;48.640;8.148;2022-08-19T06:54:55;22.90;53.20
19248;DHT22;9758;48.640;8.148;2022-08-19T06:57:23;23.00;53.20
19248;DHT22;9758;48.640;8.148;2022-08-19T06:59:50;23.00;53.20
19248;DHT22;9758;48.640;8.148;2022-08-19T07:02:19;23.00;53.20
19248;DHT22;9758;48.640;8.148;2022-08-19T07:04:45;23.00;53.10
19248;DHT22;9758;48.640;8.148;2022-08-19T07:07:14;23.00;53.20
19248;DHT22;9758;48.640;8.148;2022-08-19T07:09:42;23.00;53.20
19248;DHT22;9758;48.640;8.148;2022-08-19T07:12:12;23.10;53.20
19248;DHT22;9758;48.640;8.148;2022-08-19T07:14:41;23.10;53.20
19248;DHT22;9758;48.640;8.148;2022-08-19T07:17:10;23.10;53.10
19248;DHT22;9758;48.640;8.148;2022-08-19T07:19:40;23.10;53.10
19248;DHT22;9758;48.640;8.148;2022-08-19T07:22:13;23.10;53.00
19248;DHT22;9758;48.640;8.148;2022-08-19T07:24:40;23.10;53.10
19248;DHT22;9758;48.640;8.148;2022-08-19T07:27:07;23.20;53.10
19248;DHT22;9758;48.640;8.148;2022-08-19T07:29:36;23.30;53.10
19248;DHT22;9758;48.640;8.148;2022-08-19T07:32:03;23.30;53.10
19248;DHT22;9758;48.640;8.148;2022-08-19T07:34:32;23.30;53.10
19248;DHT22;9758;48.640;8.148;2022-08-19T07:37:04;23.30;53.00
19248;DHT22;9758;48.640;8.148;2022-08-19T07:39:33;23.40;53.00
19248;DHT22;9758;48.640;8.148;2022-08-19T07:42:05;23.50;53.10
19248;DHT22;9758;48.640;8.148;2022-08-19T07:44:32;23.50;53.00
19248;DHT22;9758;48.640;8.148;2022-08-19T07:47:00;23.60;53.00
19248;DHT22;9758;48.640;8.148;2022-08-19T07:49:27;23.60;52.90
19248;DHT22;9758;48.640;8.148;2022-08-19T07:51:57;23.60;52.80
19248;DHT22;9758;48.640;8.148;2022-08-19T07:54:27;23.70;52.80
19248;DHT22;9758;48.640;8.148;2022-08-19T07:56:54;23.70;52.80
19248;DHT22;9758;48.640;8.148;2022-08-19T07:59:22;23.80;52.80
19248;DHT22;9758;48.640;8.148;2022-08-19T08:01:49;23.80;52.80
19248;DHT22;9758;48.640;8.148;2022-08-19T08:04:17;23.80;52.70
19248;DHT22;9758;48.640;8.148;2022-08-19T08:07:03;23.90;52.70
19248;DHT22;9758;48.640;8.148;2022-08-19T08:09:48;23.90;52.70
19248;DHT22;9758;48.640;8.148;2022-08-19T08:12:17;23.90;52.60
19248;DHT22;9758;48.640;8.148;2022-08-19T08:14:46;24.00;52.70
19248;DHT22;9758;48.640;8.148;2022-08-19T08:17:15;24.00;52.60
19248;DHT22;9758;48.640;8.148;2022-08-19T08:19:42;24.10;52.60
19248;DHT22;9758;48.640;8.148;2022-08-19T08:22:10;24.10;52.60
19248;DHT22;9758;48.640;8.148;2022-08-19T08:25:03;24.10;52.50
19248;DHT22;9758;48.640;8.148;2022-08-19T08:27:29;24.10;52.50
19248;DHT22;9758;48.640;8.148;2022-08-19T08:29:56;24.10;52.50
19248;DHT22;9758;48.640;8.148;2022-08-19T08:32:23;24.10;52.50
19248;DHT22;9758;48.640;8.148;2022-08-19T08:34:50;24.20;52.50
19248;DHT22;9758;48.640;8.148;2022-08-19T08:37:19;24.20;52.50
19248;DHT22;9758;48.640;8.148;2022-08-19T08:39:47;24.30;52.50
19248;DHT22;9758;48.640;8.148;2022-08-19T08:42:19;24.40;52.50
19248;DHT22;9758;48.640;8.148;2022-08-19T08:44:53;24.40;52.40
19248;DHT22;9758;48.640;8.148;2022-08-19T08:47:22;24.50;52.40
19248;DHT22;9758;48.640;8.148;2022-08-19T08:49:54;24.50;52.30
19248;DHT22;9758;48.640;8.148;2022-08-19T08:52:25;24.60;52.30
19248;DHT22;9758;48.640;8.148;2022-08-19T08:54:55;24.60;52.30
19248;DHT22;9758;48.640;8.148;2022-08-19T08:57:27;24.70;52.20
19248;DHT22;9758;48.640;8.148;2022-08-19T08:59:57;24.70;52.20
19248;DHT22;9758;48.640;8.148;2022-08-19T09:02:24;24.80;52.30
19248;DHT22;9758;48.640;8.148;2022-08-19T09:04:51;24.80;52.20
19248;DHT22;9758;48.640;8.148;2022-08-19T09:07:26;24.90;52.10
19248;DHT22;9758;48.640;8.148;2022-08-19T09:10:02;24.90;52.00
19248;DHT22;9758;48.640;8.148;2022-08-19T09:12:38;25.00;52.00
19248;DHT22;9758;48.640;8.148;2022-08-19T09:15:09;25.00;52.00
19248;DHT22;9758;48.640;8.148;2022-08-19T09:17:37;25.00;52.10
19248;DHT22;9758;48.640;8.148;2022-08-19T09:20:06;25.10;52.10
19248;DHT22;9758;48.640;8.148;2022-08-19T09:22:40;25.20;52.00
19248;DHT22;9758;48.640;8.148;2022-08-19T09:25:10;25.30;51.90
19248;DHT22;9758;48.640;8.148;2022-08-19T09:27:41;25.40;51.90
19248;DHT22;9758;48.640;8.148;2022-08-19T09:30:11;25.50;51.80
19248;DHT22;9758;48.640;8.148;2022-08-19T09:32:38;25.60;51.70
19248;DHT22;9758;48.640;8.148;2022-08-19T09:35:07;25.70;51.70
19248;DHT22;9758;48.640;8.148;2022-08-19T09:37:34;25.80;51.60
19248;DHT22;9758;48.640;8.148;2022-08-19T09:40:02;26.00;51.60
19248;DHT22;9758;48.640;8.148;2022-08-19T09:42:29;26.10;51.40
19248;DHT22;9758;48.640;8.148;2022-08-19T09:45:10;26.30;51.30
19248;DHT22;9758;48.640;8.148;2022-08-19T09:47:37;26.40;51.20
19248;DHT22;9758;48.640;8.148;2022-08-19T09:50:05;26.40;51.00
19248;DHT22;9758;48.640;8.148;2022-08-19T09:52:32;26.50;50.90
19248;DHT22;9758;48.640;8.148;2022-08-19T09:55:02;26.50;50.90
19248;DHT22;9758;48.640;8.148;2022-08-19T09:57:29;26.60;50.90
19248;DHT22;9758;48.640;8.148;2022-08-19T09:59:56;26.60;50.90
19248;DHT22;9758;48.640;8.148;2022-08-19T10:02:24;26.70;50.80
19248;DHT22;9758;48.640;8.148;2022-08-19T10:04:51;26.70;50.80
19248;DHT22;9758;48.640;8.148;2022-08-19T10:07:35;26.70;50.60
19248;DHT22;9758;48.640;8.148;2022-08-19T10:10:04;26.70;50.50
19248;DHT22;9758;48.640;8.148;2022-08-19T10:12:32;26.70;50.30
19248;DHT22;9758;48.640;8.148;2022-08-19T10:14:59;26.60;50.30
19248;DHT22;9758;48.640;8.148;2022-08-19T10:17:28;26.60;50.40
19248;DHT22;9758;48.640;8.148;2022-08-19T10:19:55;26.50;50.40
19248;DHT22;9758;48.640;8.148;2022-08-19T10:22:22;26.50;50.40
19248;DHT22;9758;48.640;8.148;2022-08-19T10:24:49;26.50;50.50
19248;DHT22;9758;48.640;8.148;2022-08-19T10:27:16;26.50;50.60
19248;DHT22;9758;48.640;8.148;2022-08-19T10:29:43;26.60;50.60
19248;DHT22;9758;48.640;8.148;2022-08-19T10:32:10;26.70;50.60
19248;DHT22;9758;48.640;8.148;2022-08-19T10:34:38;26.70;50.40
19248;DHT22;9758;48.640;8.148;2022-08-19T10:37:05;26.80;50.40
19248;DHT22;9758;48.640;8.148;2022-08-19T10:39:33;26.80;50.40
19248;DHT22;9758;48.640;8.148;2022-08-19T10:42:04;26.80;50.30
19248;DHT22;9758;48.640;8.148;2022-08-19T10:44:38;27.00;50.30
19248;DHT22;9758;48.640;8.148;2022-08-19T10:47:05;27.00;50.20
19248;DHT22;9758;48.640;8.148;2022-08-19T10:49:32;27.10;50.00
19248;DHT22;9758;48.640;8.148;2022-08-19T10:52:20;27.10;50.00
19248;DHT22;9758;48.640;8.148;2022-08-19T10:55:02;27.10;50.00
19248;DHT22;9758;48.640;8.148;2022-08-19T10:57:47;27.30;50.10
19248;DHT22;9758;48.640;8.148;2022-08-19T11:00:14;27.30;49.90
19248;DHT22;9758;48.640;8.148;2022-08-19T11:02:41;27.30;49.60
19248;DHT22;9758;48.640;8.148;2022-08-19T11:05:08;27.20;49.60
19248;DHT22;9758;48.640;8.148;2022-08-19T11:07:37;27.20;49.50
19248;DHT22;9758;48.640;8.148;2022-08-19T11:10:05;27.10;49.50
19248;DHT22;9758;48.640;8.148;2022-08-19T11:12:32;27.00;49.70
19248;DHT22;9758;48.640;8.148;2022-08-19T11:14:59;26.90;49.60
19248;DHT22;9758;48.640;8.148;2022-08-19T11:17:26;26.90;49.80
19248;DHT22;9758;48.640;8.148;2022-08-19T11:19:56;26.90;49.90
19248;DHT22;9758;48.640;8.148;2022-08-19T11:22:23;27.00;50.00
19248;DHT22;9758;48.640;8.148;2022-08-19T11:24:51;27.10;49.80
19248;DHT22;9758;48.640;8.148;2022-08-19T11:27:18;27.10;49.90
19248;DHT22;9758;48.640;8.148;2022-08-19T11:29:45;27.30;50.00
19248;DHT22;9758;48.640;8.148;2022-08-19T11:32:25;27.40;50.40
19248;DHT22;9758;48.640;8.148;2022-08-19T11:34:51;27.40;49.60
19248;DHT22;9758;48.640;8.148;2022-08-19T11:37:18;27.50;49.30
19248;DHT22;9758;48.640;8.148;2022-08-19T11:39:45;27.50;49.30
19248;DHT22;9758;48.640;8.148;2022-08-19T11:42:13;27.50;49.40
19248;DHT22;9758;48.640;8.148;2022-08-19T11:44:59;27.60;49.50
19248;DHT22;9758;48.640;8.148;2022-08-19T11:47:29;27.60;49.30
19248;DHT22;9758;48.640;8.148;2022-08-19T11:49:56;27.70;49.30
19248;DHT22;9758;48.640;8.148;2022-08-19T11:52:23;27.80;49.00
19248;DHT22;9758;48.640;8.148;2022-08-19T11:54:50;27.80;49.00
19248;DHT22;9758;48.640;8.148;2022-08-19T11:57:18;27.80;48.90
19248;DHT22;9758;48.640;8.148;2022-08-19T11:59:49;27.80;48.90
19248;DHT22;9758;48.640;8.148;2022-08-19T12:02:16;27.80;49.00
19248;DHT22;9758;48.640;8.148;2022-08-19T12:04:42;27.80;48.90
19248;DHT22;9758;48.640;8.148;2022-08-19T12:07:09;27.80;48.60
19248;DHT22;9758;48.640;8.148;2022-08-19T12:09:36;27.90;49.50
19248;DHT22;9758;48.640;8.148;2022-08-19T12:12:06;27.90;48.80
19248;DHT22;9758;48.640;8.148;2022-08-19T12:14:34;28.00;48.80
19248;DHT22;9758;48.640;8.148;2022-08-19T12:17:01;28.00;48.60
19248;DHT22;9758;48.640;8.148;2022-08-19T12:19:30;28.00;48.50
19248;DHT22;9758;48.640;8.148;2022-08-19T12:21:59;28.00;48.40
19248;DHT22;9758;48.640;8.148;2022-08-19T12:24:26;28.00;48.50
19248;DHT22;9758;48.640;8.148;2022-08-19T12:26:53;28.00;48.40
19248;DHT22;9758;48.640;8.148;2022-08-19T12:29:22;28.00;48.40
19248;DHT22;9758;48.640;8.148;2022-08-19T12:31:51;28.00;48.40
19248;DHT22;9758;48.640;8.148;2022-08-19T12:34:17;28.00;48.40
19248;DHT22;9758;48.640;8.148;2022-08-19T12:36:45;27.90;48.40
19248;DHT22;9758;48.640;8.148;2022-08-19T12:39:14;27.90;48.10
19248;DHT22;9758;48.640;8.148;2022-08-19T12:41:41;27.90;48.30
19248;DHT22;9758;48.640;8.148;2022-08-19T12:44:07;27.80;48.40
19248;DHT22;9758;48.640;8.148;2022-08-19T12:46:34;27.90;48.50
19248;DHT22;9758;48.640;8.148;2022-08-19T12:49:02;27.90;48.40
19248;DHT22;9758;48.640;8.148;2022-08-19T12:51:29;28.00;48.50
19248;DHT22;9758;48.640;8.148;2022-08-19T12:53:57;28.10;48.40
19248;DHT22;9758;48.640;8.148;2022-08-19T12:56:24;28.20;48.30
19248;DHT22;9758;48.640;8.148;2022-08-19T12:58:56;28.30;48.30
19248;DHT22;9758;48.640;8.148;2022-08-19T13:01:23;28.40;48.30
19248;DHT22;9758;48.640;8.148;2022-08-19T13:03:50;28.50;48.20
19248;DHT22;9758;48.640;8.148;2022-08-19T13:06:20;28.60;48.10
19248;DHT22;9758;48.640;8.148;2022-08-19T13:08:46;28.80;48.10
19248;DHT22;9758;48.640;8.148;2022-08-19T13:11:15;28.80;47.90
19248;DHT22;9758;48.640;8.148;2022-08-19T13:13:45;28.90;47.90
19248;DHT22;9758;48.640;8.148;2022-08-19T13:16:13;29.00;47.90
19248;DHT22;9758;48.640;8.148;2022-08-19T13:18:42;29.20;47.90
19248;DHT22;9758;48.640;8.148;2022-08-19T13:21:10;29.40;47.80
19248;DHT22;9758;48.640;8.148;2022-08-19T13:23:40;29.40;47.50
19248;DHT22;9758;48.640;8.148;2022-08-19T13:26:10;29.40;47.40
19248;DHT22;9758;48.640;8.148;2022-08-19T13:28:38;29.50;47.40
19248;DHT22;9758;48.640;8.148;2022-08-19T13:31:24;29.60;47.90
19248;DHT22;9758;48.640;8.148;2022-08-19T13:34:10;29.60;47.20
19248;DHT22;9758;48.640;8.148;2022-08-19T13:36:37;29.60;47.00
19248;DHT22;9758;48.640;8.148;2022-08-19T13:39:07;29.60;47.10
19248;DHT22;9758;48.640;8.148;2022-08-19T13:41:34;29.60;46.90
19248;DHT22;9758;48.640;8.148;2022-08-19T13:44:01;29.60;46.90
19248;DHT22;9758;48.640;8.148;2022-08-19T13:46:28;29.60;46.90
19248;DHT22;9758;48.640;8.148;2022-08-19T13:48:56;29.60;46.80
19248;DHT22;9758;48.640;8.148;2022-08-19T13:51:23;29.60;46.80
19248;DHT22;9758;48.640;8.148;2022-08-19T13:53:49;29.60;46.80
19248;DHT22;9758;48.640;8.148;2022-08-19T13:56:19;29.50;46.80
19248;DHT22;9758;48.640;8.148;2022-08-19T13:58:45;29.50;46.80
19248;DHT22;9758;48.640;8.148;2022-08-19T14:01:12;29.50;46.70
19248;DHT22;9758;48.640;8.148;2022-08-19T14:03:44;29.40;46.70
19248;DHT22;9758;48.640;8.148;2022-08-19T14:06:11;29.30;46.60
19248;DHT22;9758;48.640;8.148;2022-08-19T14:08:38;29.20;46.60
19248;DHT22;9758;48.640;8.148;2022-08-19T14:11:07;29.20;46.70
19248;DHT22;9758;48.640;8.148;2022-08-19T14:13:35;29.10;46.70
19248;DHT22;9758;48.640;8.148;2022-08-19T14:16:07;29.00;46.60
19248;DHT22;9758;48.640;8.148;2022-08-19T14:18:35;29.10;46.70
19248;DHT22;9758;48.640;8.148;2022-08-19T14:21:02;29.00;46.70
19248;DHT22;9758;48.640;8.148;2022-08-19T14:23:30;29.00;46.70
19248;DHT22;9758;48.640;8.148;2022-08-19T14:26:03;29.10;46.80
19248;DHT22;9758;48.640;8.148;2022-08-19T14:28:30;29.20;46.90
19248;DHT22;9758;48.640;8.148;2022-08-19T14:30:58;29.30;46.60
19248;DHT22;9758;48.640;8.148;2022-08-19T14:33:25;29.30;46.60
19248;DHT22;9758;48.640;8.148;2022-08-19T14:35:52;29.40;46.60
19248;DHT22;9758;48.640;8.148;2022-08-19T14:38:27;29.40;46.60
19248;DHT22;9758;48.640;8.148;2022-08-19T14:41:04;29.40;46.50
19248;DHT22;9758;48.640;8.148;2022-08-19T14:43:31;29.50;46.60
19248;DHT22;9758;48.640;8.148;2022-08-19T14:46:00;29.50;46.50
19248;DHT22;9758;48.640;8.148;2022-08-19T14:48:27;29.50;46.40
19248;DHT22;9758;48.640;8.148;2022-08-19T14:50:53;29.60;46.50
19248;DHT22;9758;48.640;8.148;2022-08-19T14:53:20;29.60;46.50
19248;DHT22;9758;48.640;8.148;2022-08-19T14:55:47;29.70;46.40
19248;DHT22;9758;48.640;8.148;2022-08-19T14:58:15;29.70;46.30
19248;DHT22;9758;48.640;8.148;2022-08-19T15:00:42;29.70;46.30
19248;DHT22;9758;48.640;8.148;2022-08-19T15:03:10;29.80;46.30
19248;DHT22;9758;48.640;8.148;2022-08-19T15:05:38;29.80;46.30
19248;DHT22;9758;48.640;8.148;2022-08-19T15:08:05;29.90;46.30
19248;DHT22;9758;48.640;8.148;2022-08-19T15:10:32;29.90;46.10
19248;DHT22;9758;48.640;8.148;2022-08-19T15:12:59;29.90;46.10
19248;DHT22;9758;48.640;8.148;2022-08-19T15:15:26;30.00;46.00
19248;DHT22;9758;48.640;8.148;2022-08-19T15:18:13;29.90;45.90
19248;DHT22;9758;48.640;8.148;2022-08-19T15:20:40;29.80;45.80
19248;DHT22;9758;48.640;8.148;2022-08-19T15:23:08;29.80;45.90
19248;DHT22;9758;48.640;8.148;2022-08-19T15:25:36;29.70;45.90
19248;DHT22;9758;48.640;8.148;2022-08-19T15:28:03;29.60;45.90
19248;DHT22;9758;48.640;8.148;2022-08-19T15:30:30;29.60;45.90
19248;DHT22;9758;48.640;8.148;2022-08-19T15:32:58;29.50;45.90
19248;DHT22;9758;48.640;8.148;2022-08-19T15:35:27;29.50;45.90
19248;DHT22;9758;48.640;8.148;2022-08-19T15:37:55;29.50;45.90
19248;DHT22;9758;48.640;8.148;2022-08-19T15:40:23;29.50;46.00
19248;DHT22;9758;48.640;8.148;2022-08-19T15:42:50;29.40;46.00
19248;DHT22;9758;48.640;8.148;2022-08-19T15:45:19;29.50;46.30
19248;DHT22;9758;48.640;8.148;2022-08-19T15:47:48;29.70;46.80
19248;DHT22;9758;48.640;8.148;2022-08-19T15:50:17;30.30;47.10
19248;DHT22;9758;48.640;8.148;2022-08-19T15:52:48;31.00;46.90
19248;DHT22;9758;48.640;8.148;2022-08-19T15:55:16;31.70;46.20